Time;durP1;ratioP1;P1;durP2;ratioP2;P2;SDS_P1;SDS_P2;PMS_P1;PMS_P2;Temp;Humidity;BMP_temperature;BMP_pressure;BME280_temperature;BME280_humidity;BME280_pressure;Samples;Min_cycle;Max_cycle;Signal;HPM_P1;HPM_P2
2023/10/19 00:01:17;;;;;;;20.95;14.77;;;;;;;6.83;100.00;99375.06;5101885;27;20776;-77
2023/10/19 00:04:07;;;;;;;23.52;14.95;;;;;;;6.82;100.00;99369.84;5092595;27;20043;-79
2023/10/19 00:06:54;;;;;;;25.00;16.00;;;;;;;6.78;100.00;99358.66;5112856;27;20044;-79
2023/10/19 00:09:45;;;;;;;24.42;15.90;;;;;;;6.80;100.00;99356.88;5102245;27;20047;-78
2023/10/19 00:12:32;;;;;;;22.10;15.68;;;;;;;6.77;100.00;99344.75;5102506;27;21131;-78
2023/10/19 00:15:23;;;;;;;23.10;15.13;;;;;;;6.74;100.00;99342.22;5105133;27;20047;-80
2023/10/19 00:18:23;;;;;;;29.30;18.02;;;;;;;6.75;100.00;99350.88;5100235;27;20107;-78
2023/10/19 00:21:20;;;;;;;28.27;17.90;;;;;;;6.75;100.00;99341.34;5108234;27;20108;-78
2023/10/19 00:24:09;;;;;;;27.52;17.80;;;;;;;6.72;100.00;99335.31;5096045;27;20043;-79
2023/10/19 00:26:55;;;;;;;29.00;17.75;;;;;;;6.55;100.00;99338.16;5098526;27;20042;-81
2023/10/19 00:29:48;;;;;;;24.60;17.10;;;;;;;6.55;100.00;99328.59;5111499;27;20054;-79
2023/10/19 00:32:38;;;;;;;27.63;18.42;;;;;;;6.59;100.00;99330.28;5100691;27;20047;-79
2023/10/19 00:35:33;;;;;;;34.97;20.15;;;;;;;6.57;100.00;99324.25;5091480;27;20639;-79
2023/10/19 00:38:27;;;;;;;33.33;21.90;;;;;;;6.55;100.00;99322.56;5099182;27;20051;-79
2023/10/19 00:41:20;;;;;;;31.55;19.30;;;;;;;6.52;100.00;99330.38;5112960;27;20807;-79
2023/10/19 00:44:10;;;;;;;29.85;19.15;;;;;;;6.52;100.00;99318.25;5102637;27;20065;-79
2023/10/19 00:47:03;;;;;;;38.42;22.30;;;;;;;6.50;100.00;99313.97;5103860;27;20514;-79
2023/10/19 00:49:54;;;;;;;34.28;21.83;;;;;;;6.47;100.00;99312.25;5116008;27;20028;-78
2023/10/19 00:52:43;;;;;;;31.52;21.60;;;;;;;6.43;100.00;99308.84;5100474;27;20058;-79
2023/10/19 00:55:33;;;;;;;34.10;22.17;;;;;;;6.35;100.00;99296.81;5100752;27;20268;-78
2023/10/19 00:58:29;;;;;;;33.88;22.45;;;;;;;6.30;100.00;99296.91;5096208;27;20743;-78
2023/10/19 01:01:20;;;;;;;36.78;23.33;;;;;;;6.32;100.00;99294.28;5102144;27;20274;-78
2023/10/19 01:04:13;;;;;;;36.92;22.67;;;;;;;6.27;100.00;99290.00;5099259;27;20043;-77
2023/10/19 01:07:05;;;;;;;35.88;22.70;;;;;;;6.31;100.00;99287.34;5104088;27;20171;-79
2023/10/19 01:09:53;;;;;;;38.55;24.40;;;;;;;6.32;100.00;99289.06;5101406;27;20121;-78
2023/10/19 01:12:39;;;;;;;39.17;22.35;;;;;;;6.30;100.00;99281.31;5094293;27;20051;-79
2023/10/19 01:15:35;;;;;;;41.60;25.27;;;;;;;6.35;100.00;99283.81;5099617;27;20043;-81
2023/10/19 01:18:22;;;;;;;40.92;26.40;;;;;;;6.31;100.00;99270.03;5112193;27;20122;-79
2023/10/19 01:21:11;;;;;;;42.05;24.15;;;;;;;6.34;100.00;99266.53;5094915;27;20059;-80
2023/10/19 01:23:58;;;;;;;44.50;27.42;;;;;;;6.26;100.00;99261.44;5098502;27;20038;-77
2023/10/19 01:26:47;;;;;;;41.10;25.92;;;;;;;6.29;100.00;99261.41;5115685;27;20740;-78
2023/10/19 01:29:34;;;;;;;47.05;27.02;;;;;;;6.24;100.00;99250.19;5112894;27;20538;-81
2023/10/19 01:32:22;;;;;;;41.00;26.30;;;;;;;6.27;100.00;99240.63;5108380;27;20439;-79
2023/10/19 01:35:11;;;;;;;46.40;26.85;;;;;;;6.18;100.00;99245.06;5104609;27;20055;-77
2023/10/19 01:37:57;;;;;;;44.80;28.27;;;;;;;6.20;100.00;99238.97;5099643;27;20059;-79
2023/10/19 01:40:48;;;;;;;42.45;27.15;;;;;;;6.27;100.00;99232.84;5114085;27;20054;-79
2023/10/19 01:43:40;;;;;;;47.50;27.85;;;;;;;6.24;100.00;99225.06;5111037;27;21439;-79
2023/10/19 01:46:31;;;;;;;46.22;28.25;;;;;;;6.21;100.00;99225.13;5100140;27;20095;-79
2023/10/19 01:49:27;;;;;;;54.05;29.10;;;;;;;6.20;100.00;99220.78;5100188;27;20138;-80
2023/10/19 01:52:14;;;;;;;46.90;28.67;;;;;;;7.14;100.00;99214.97;5095779;27;20146;-78
2023/10/19 01:55:07;;;;;;;45.40;28.00;;;;;;;8.63;100.00;99200.59;5104042;27;20051;-79
2023/10/19 01:57:53;;;;;;;54.75;31.85;;;;;;;8.33;100.00;99208.22;5108209;27;20052;-78
2023/10/19 02:00:43;;;;;;;50.08;29.00;;;;;;;6.84;100.00;99205.06;5128395;27;20039;-80
2023/10/19 02:03:32;;;;;;;51.08;29.33;;;;;;;6.57;100.00;99195.97;5099756;27;20666;-79
2023/10/19 02:06:19;;;;;;;48.92;29.52;;;;;;;6.52;100.00;99203.88;5099875;27;20075;-79
2023/10/19 02:09:17;;;;;;;52.55;29.00;;;;;;;6.29;100.00;99199.88;5096132;27;20043;-78
2023/10/19 02:12:06;;;;;;;51.55;29.92;;;;;;;7.37;100.00;99197.19;5096183;27;20514;-79
2023/10/19 02:14:53;;;;;;;49.85;29.85;;;;;;;7.49;100.00;99182.22;5111631;27;20490;-78
2023/10/19 02:17:39;;;;;;;46.53;28.63;;;;;;;7.35;100.00;99170.31;5099958;27;20042;-78
2023/10/19 02:20:26;;;;;;;51.50;31.73;;;;;;;7.25;100.00;99171.41;5109301;27;20067;-79
2023/10/19 02:23:13;;;;;;;52.92;30.90;;;;;;;7.02;100.00;99162.28;5112051;27;20267;-77
2023/10/19 02:25:59;;;;;;;49.05;30.45;;;;;;;6.09;100.00;99157.75;5111839;27;20741;-79
2023/10/19 02:28:46;;;;;;;54.17;30.38;;;;;;;5.89;100.00;99158.00;5113621;27;20670;-76
2023/10/19 02:31:33;;;;;;;47.20;28.08;;;;;;;5.99;100.00;99148.38;5116483;27;20046;-80
2023/10/19 02:34:20;;;;;;;49.55;27.65;;;;;;;5.88;100.00;99143.28;5110949;27;20138;-80
2023/10/19 02:37:07;;;;;;;44.85;26.90;;;;;;;5.89;100.00;99137.22;5097670;27;20039;-77
2023/10/19 02:39:54;;;;;;;48.10;28.48;;;;;;;5.97;100.00;99133.63;5111810;27;20057;-77
2023/10/19 02:42:40;;;;;;;47.45;27.55;;;;;;;6.02;100.00;99130.13;5098086;27;20109;-79
2023/10/19 02:45:30;;;;;;;44.55;27.73;;;;;;;6.13;100.00;99133.44;5113770;27;20104;-78
2023/10/19 02:48:17;;;;;;;48.70;28.27;;;;;;;6.17;100.00;99132.50;5099002;27;20483;-78
2023/10/19 02:51:10;;;;;;;50.70;27.05;;;;;;;5.99;100.00;99107.66;5114413;27;20053;-78
2023/10/19 02:53:59;;;;;;;43.95;27.33;;;;;;;5.97;100.00;99109.38;5098246;27;20121;-79
2023/10/19 02:56:52;;;;;;;42.92;26.90;;;;;;;6.02;100.00;99106.75;5095708;27;20043;-80
2023/10/19 02:59:38;;;;;;;46.85;28.48;;;;;;;5.95;100.00;99106.81;5097231;27;20681;-75
2023/10/19 03:02:26;;;;;;;43.28;28.30;;;;;;;6.02;100.00;99117.16;5103076;27;20531;-78
2023/10/19 03:05:17;;;;;;;47.83;28.17;;;;;;;6.02;100.00;99114.56;5100867;27;20077;-75
2023/10/19 03:08:05;;;;;;;50.72;28.85;;;;;;;6.08;100.00;99117.91;5114405;27;20043;-78
2023/10/19 03:11:03;;;;;;;48.20;29.20;;;;;;;6.04;100.00;99125.78;5113874;27;20065;-76
2023/10/19 03:13:52;;;;;;;42.80;28.35;;;;;;;6.03;100.00;99113.69;5100387;27;20066;-81
2023/10/19 03:16:42;;;;;;;50.00;28.75;;;;;;;6.08;100.00;99110.13;5111694;27;20539;-78
2023/10/19 03:19:27;;;;;;;47.10;28.50;;;;;;;6.09;100.00;99113.59;5098599;27;20050;-79
2023/10/19 03:22:14;;;;;;;47.13;29.08;;;;;;;6.38;100.00;99096.66;5099801;27;20070;-79
2023/10/19 03:25:14;;;;;;;43.78;27.83;;;;;;;6.30;100.00;99089.00;5113699;27;20051;-79
2023/10/19 03:28:08;;;;;;;55.78;29.25;;;;;;;6.25;100.00;99081.25;5103207;27;20051;-76
2023/10/19 03:30:59;;;;;;;48.13;29.38;;;;;;;6.40;100.00;99069.75;5117444;27;20058;-80
2023/10/19 03:33:53;;;;;;;52.45;30.25;;;;;;;6.09;100.00;99069.44;5094672;28;20479;-77
2023/10/19 03:36:42;;;;;;;;;;;;;;;6.05;100.00;99065.13;5094872;27;20047;-79
2023/10/19 03:39:30;;;;;;;54.30;28.50;;;;;;;6.04;100.00;99056.50;5113533;27;19930;-77
2023/10/19 03:42:17;;;;;;;48.35;28.88;;;;;;;6.08;100.00;99057.31;5096261;27;20683;-79
2023/10/19 03:45:12;;;;;;;46.95;28.95;;;;;;;6.04;100.00;99047.84;5114030;27;20039;-77
2023/10/19 03:48:06;;;;;;;47.72;27.17;;;;;;;6.06;100.00;99059.94;5116461;27;20043;-77
2023/10/19 03:50:55;;;;;;;48.08;28.55;;;;;;;6.14;100.00;99057.22;5101899;27;20054;-78
2023/10/19 03:53:48;;;;;;;47.60;28.90;;;;;;;6.15;100.00;99064.09;5101541;27;20046;-78
2023/10/19 03:56:37;;;;;;;45.85;29.13;;;;;;;6.12;100.00;99056.38;5096766;27;20714;-78
2023/10/19 03:59:29;;;;;;;42.88;27.77;;;;;;;6.15;100.00;99045.91;5094381;27;20671;-77
2023/10/19 04:02:20;;;;;;;50.58;31.02;;;;;;;6.12;100.00;99045.97;5111707;27;20139;-78
2023/10/19 04:05:09;;;;;;;46.35;28.85;;;;;;;6.17;100.00;99045.91;5096756;27;20043;-76
2023/10/19 04:07:57;;;;;;;48.83;30.55;;;;;;;6.16;100.00;99049.38;5097430;27;20047;-77
2023/10/19 04:11:07;;;;;;;48.42;28.38;;;;;;;6.18;100.00;99040.69;5102407;27;20103;-78
2023/10/19 04:13:54;;;;;;;44.92;28.10;;;;;;;6.16;100.00;99050.25;5120771;27;20197;-80
2023/10/19 04:16:43;;;;;;;46.88;28.00;;;;;;;6.19;100.00;99033.75;5098493;27;20039;-78
2023/10/19 04:19:30;;;;;;;52.80;28.77;;;;;;;6.16;100.00;99036.41;5100412;27;20394;-81
2023/10/19 04:22:22;;;;;;;47.00;28.17;;;;;;;6.16;100.00;99032.06;5103516;27;20051;-76
2023/10/19 04:25:12;;;;;;;52.42;28.30;;;;;;;6.22;100.00;99033.69;5095412;27;20054;-78
2023/10/19 04:28:00;;;;;;;44.03;26.48;;;;;;;6.13;100.00;99021.72;5096256;27;20039;-78
2023/10/19 04:30:48;;;;;;;51.63;28.70;;;;;;;6.22;100.00;99031.06;5104214;27;20664;-80
2023/10/19 04:33:35;;;;;;;49.10;29.50;;;;;;;6.18;100.00;99024.22;5098791;27;20051;-78
2023/10/19 04:36:22;;;;;;;42.70;26.88;;;;;;;6.22;100.00;99013.75;5113801;27;20122;-76
2023/10/19 04:39:13;;;;;;;43.22;25.45;;;;;;;6.15;100.00;99013.91;5118141;27;20903;-78
2023/10/19 04:42:00;;;;;;;40.25;25.58;;;;;;;6.18;100.00;99019.03;5102075;27;20064;-76
2023/10/19 04:44:47;;;;;;;39.03;25.45;;;;;;;6.16;100.00;99023.41;5115937;27;20134;-75
2023/10/19 04:47:36;;;;;;;44.33;26.52;;;;;;;6.18;100.00;99017.31;5111740;27;20051;-78
2023/10/19 04:50:23;;;;;;;35.95;25.40;;;;;;;6.18;100.00;99013.81;5095581;27;20122;-79
2023/10/19 04:53:09;;;;;;;40.10;24.83;;;;;;;6.22;100.00;99005.97;5101703;27;20435;-78
2023/10/19 04:55:56;;;;;;;39.05;24.63;;;;;;;6.20;100.00;99007.72;5102412;27;20058;-79
2023/10/19 04:58:43;;;;;;;40.70;24.38;;;;;;;6.23;100.00;99002.50;5115031;27;20035;-77
2023/10/19 05:01:33;;;;;;;39.33;23.92;;;;;;;6.20;100.00;99006.88;5119937;27;20268;-76
2023/10/19 05:04:20;;;;;;;35.45;22.08;;;;;;;6.18;100.00;98998.25;5098957;27;20047;-76
2023/10/19 05:07:11;;;;;;;32.50;21.17;;;;;;;6.20;100.00;98999.09;5116636;27;20222;-77
2023/10/19 05:09:59;;;;;;;42.47;23.15;;;;;;;6.25;100.00;98992.91;5098591;27;20044;-76
2023/10/19 05:12:46;;;;;;;33.22;22.55;;;;;;;6.27;100.00;98987.69;5115703;27;20522;-79
2023/10/19 05:15:33;;;;;;;37.17;21.13;;;;;;;6.19;100.00;98987.84;5092931;27;20043;-78
2023/10/19 05:18:21;;;;;;;32.95;22.35;;;;;;;6.26;100.00;98986.84;5096145;27;20089;-77
2023/10/19 05:21:10;;;;;;;34.17;21.27;;;;;;;6.26;100.00;98988.59;5102799;27;20454;-78
2023/10/19 05:23:57;;;;;;;33.35;20.55;;;;;;;6.25;100.00;99000.72;5103201;27;20047;-78
2023/10/19 05:26:43;;;;;;;33.13;20.45;;;;;;;6.24;100.00;98996.38;5101742;27;20043;-79
2023/10/19 05:29:33;;;;;;;32.47;21.10;;;;;;;6.21;100.00;99001.66;5119040;27;20261;-76
2023/10/19 05:32:24;;;;;;;32.70;20.30;;;;;;;6.20;100.00;98997.34;5103924;27;20039;-77
2023/10/19 05:35:22;;;;;;;31.33;19.90;;;;;;;6.23;100.00;99002.50;5103693;27;20114;-77
2023/10/19 05:38:09;;;;;;;29.20;18.52;;;;;;;6.23;100.00;98996.41;5115554;27;20047;-76
2023/10/19 05:41:00;;;;;;;27.88;18.95;;;;;;;6.22;100.00;99005.09;5104039;27;20087;-76
2023/10/19 05:43:46;;;;;;;31.40;17.35;;;;;;;6.22;100.00;99007.69;5103779;27;20050;-78
2023/10/19 05:46:33;;;;;;;28.60;18.67;;;;;;;6.24;100.00;99001.59;5098014;27;20103;-80
2023/10/19 05:49:20;;;;;;;30.05;18.38;;;;;;;6.24;100.00;99008.53;5115041;27;20047;-78
2023/10/19 05:52:07;;;;;;;26.10;17.58;;;;;;;6.21;100.00;99004.25;5097110;27;20047;-77
2023/10/19 05:54:54;;;;;;;29.25;18.95;;;;;;;6.27;100.00;99013.66;5114602;27;20550;-79
2023/10/19 05:57:41;;;;;;;28.27;18.60;;;;;;;6.29;100.00;99019.72;5103358;27;20043;-79
2023/10/19 06:00:28;;;;;;;26.27;16.52;;;;;;;6.26;100.00;99022.38;5095995;27;20035;-78
2023/10/19 06:03:15;;;;;;;24.92;16.77;;;;;;;6.31;100.00;99019.66;5096514;27;20043;-79
2023/10/19 06:06:02;;;;;;;25.02;17.27;;;;;;;6.32;100.00;99024.00;5093358;27;20051;-77
2023/10/19 06:08:49;;;;;;;24.30;16.35;;;;;;;6.29;100.00;99019.72;5095159;27;20534;-76
2023/10/19 06:11:42;;;;;;;26.80;16.33;;;;;;;6.28;100.00;99020.59;5092407;27;20058;-77
2023/10/19 06:14:30;;;;;;;24.95;15.38;;;;;;;6.36;100.00;99025.66;5098000;27;20055;-77
2023/10/19 06:17:19;;;;;;;23.40;15.73;;;;;;;6.34;100.00;99019.63;5096939;27;20047;-78
2023/10/19 06:20:08;;;;;;;23.08;16.02;;;;;;;6.31;100.00;99017.94;5096486;27;20704;-78
2023/10/19 06:23:03;;;;;;;21.40;15.90;;;;;;;6.31;100.00;99017.94;5100919;27;20039;-79
2023/10/19 06:25:51;;;;;;;21.83;14.88;;;;;;;6.32;100.00;99014.44;5105341;27;20078;-79
2023/10/19 06:28:39;;;;;;;21.73;14.95;;;;;;;6.34;100.00;99019.63;5093889;27;20062;-77
2023/10/19 06:31:28;;;;;;;22.92;15.23;;;;;;;6.32;100.00;99014.44;5095572;27;20043;-78
2023/10/19 06:34:17;;;;;;;17.80;13.82;;;;;;;6.35;100.00;99022.19;5100994;27;20074;-78
2023/10/19 06:37:07;;;;;;;22.70;14.52;;;;;;;6.36;100.00;99023.03;5096514;27;20051;-77
2023/10/19 06:39:53;;;;;;;18.52;14.07;;;;;;;6.35;100.00;99016.13;5099514;27;20058;-77
2023/10/19 06:42:45;;;;;;;21.20;14.18;;;;;;;6.39;100.00;99018.66;5111137;27;20054;-79
2023/10/19 06:45:34;;;;;;;20.27;13.93;;;;;;;6.30;100.00;99016.22;5099351;27;20530;-78
2023/10/19 06:48:22;;;;;;;18.50;13.18;;;;;;;6.35;100.00;99026.53;5112272;27;20047;-78
2023/10/19 06:51:08;;;;;;;24.30;15.23;;;;;;;6.35;100.00;99017.00;5099937;27;20054;-77
2023/10/19 06:53:55;;;;;;;21.25;13.73;;;;;;;6.41;100.00;99018.63;5099608;27;20577;-76
2023/10/19 06:56:45;;;;;;;20.58;13.68;;;;;;;6.40;100.00;99022.09;5094774;27;20058;-77
2023/10/19 06:59:33;;;;;;;19.80;13.90;;;;;;;6.36;100.00;99010.94;5100793;27;20054;-78
2023/10/19 07:02:20;;;;;;;19.77;14.23;;;;;;;6.46;100.00;99014.19;5117482;27;20139;-79
2023/10/19 07:05:11;;;;;;;21.00;14.20;;;;;;;6.46;100.00;99003.81;5098189;27;20127;-77
2023/10/19 07:07:59;;;;;;;21.60;13.48;;;;;;;6.47;100.00;99000.31;5098660;27;20043;-78
2023/10/19 07:10:50;;;;;;;19.98;14.23;;;;;;;6.48;100.00;99011.56;5100732;27;20558;-79
2023/10/19 07:13:37;;;;;;;18.70;13.18;;;;;;;6.51;100.00;99006.34;5100927;27;20206;-77
2023/10/19 07:16:24;;;;;;;20.35;12.02;;;;;;;6.49;100.00;99006.34;5100117;27;20381;-78
2023/10/19 07:19:11;;;;;;;17.27;12.40;;;;;;;6.44;100.00;99011.63;5118728;27;20039;-78
2023/10/19 07:21:58;;;;;;;16.63;12.55;;;;;;;6.48;100.00;99014.16;5095293;27;20055;-79
2023/10/19 07:24:48;;;;;;;15.80;11.25;;;;;;;6.51;100.00;99011.53;5099481;27;20751;-77
2023/10/19 07:27:35;;;;;;;14.85;11.00;;;;;;;6.49;100.00;99006.34;5097341;27;20038;-80
2023/10/19 07:30:26;;;;;;;17.00;11.65;;;;;;;6.53;100.00;99010.63;5100165;27;20051;-78
2023/10/19 07:33:17;;;;;;;14.73;11.63;;;;;;;6.46;100.00;99003.81;5114773;27;20560;-79
2023/10/19 07:36:08;;;;;;;15.95;12.43;;;;;;;6.52;100.00;99008.91;5117755;27;20058;-81
2023/10/19 07:38:55;;;;;;;16.27;11.32;;;;;;;6.57;100.00;99012.25;5101653;27;20047;-79
2023/10/19 07:41:42;;;;;;;18.10;11.80;;;;;;;6.55;100.00;99008.81;5105919;27;20188;-79
2023/10/19 07:44:30;;;;;;;19.17;12.23;;;;;;;6.59;100.00;99004.44;5105091;27;20043;-78
2023/10/19 07:47:16;;;;;;;14.90;10.93;;;;;;;6.63;100.00;99003.47;5099908;27;20044;-78
2023/10/19 07:50:04;;;;;;;16.10;11.82;;;;;;;6.64;100.00;99002.59;5118862;27;20142;-76
2023/10/19 07:52:53;;;;;;;14.10;11.07;;;;;;;6.73;100.00;99001.56;5104166;27;20046;-78
2023/10/19 07:55:43;;;;;;;16.98;11.13;;;;;;;6.73;100.00;98996.38;5107458;27;20051;-76
2023/10/19 07:58:31;;;;;;;17.48;10.90;;;;;;;6.85;100.00;98996.09;5103264;27;20039;-78
2023/10/19 08:01:19;;;;;;;14.25;10.90;;;;;;;6.82;100.00;98982.28;5104332;27;20050;-78
2023/10/19 08:04:06;;;;;;;14.98;10.82;;;;;;;6.88;100.00;98995.19;5104132;27;20062;-78
2023/10/19 08:06:53;;;;;;;14.13;10.02;;;;;;;6.88;100.00;98996.06;5116026;27;20058;-80
2023/10/19 08:09:39;;;;;;;14.75;9.70;;;;;;;6.81;100.00;98997.06;5106292;27;20046;-75
2023/10/19 08:12:27;;;;;;;12.25;9.77;;;;;;;6.87;100.00;98991.75;5101207;27;20069;-78
2023/10/19 08:15:16;;;;;;;13.43;9.18;;;;;;;6.90;100.00;98986.47;5099839;27;20142;-77
2023/10/19 08:18:04;;;;;;;12.10;9.15;;;;;;;6.92;100.00;98987.31;5105342;27;20078;-76
2023/10/19 08:20:52;;;;;;;12.50;9.65;;;;;;;6.95;100.00;98981.19;5105044;27;20550;-76
2023/10/19 08:23:40;;;;;;;12.23;9.35;;;;;;;6.97;100.00;98987.19;5101920;27;20104;-80
2023/10/19 08:26:27;;;;;;;9.57;8.13;;;;;;;7.03;100.00;98992.28;5104501;27;20030;-75
2023/10/19 08:29:14;;;;;;;10.57;8.27;;;;;;;7.04;100.00;98982.72;5104941;27;20065;-77
2023/10/19 08:32:01;;;;;;;12.43;9.05;;;;;;;7.05;100.00;98987.91;5101635;27;20445;-77
2023/10/19 08:34:48;;;;;;;12.85;8.80;;;;;;;7.12;100.00;98999.03;5099709;27;20822;-77
2023/10/19 08:37:35;;;;;;;11.80;8.10;;;;;;;7.15;100.00;99004.16;5116351;27;20293;-77
2023/10/19 08:40:23;;;;;;;10.52;8.32;;;;;;;7.18;100.00;99000.63;5117411;27;20051;-76
2023/10/19 08:43:13;;;;;;;11.43;8.02;;;;;;;7.13;100.00;98995.50;5120215;27;20040;-77
2023/10/19 08:46:00;;;;;;;13.65;8.02;;;;;;;7.24;100.00;98997.91;5104370;27;20088;-78
2023/10/19 08:48:47;;;;;;;9.63;7.93;;;;;;;7.28;100.00;98994.34;5105767;27;20741;-78
2023/10/19 08:51:35;;;;;;;10.85;8.35;;;;;;;7.24;100.00;99000.50;5102976;27;20051;-78
2023/10/19 08:54:22;;;;;;;9.50;7.63;;;;;;;7.21;100.00;98993.63;5101459;27;20055;-78
2023/10/19 08:57:09;;;;;;;9.93;8.48;;;;;;;7.33;100.00;98994.25;5100846;27;20247;-77
2023/10/19 08:59:58;;;;;;;11.25;8.45;;;;;;;7.41;100.00;98989.72;5106754;27;20446;-80
2023/10/19 09:02:49;;;;;;;9.15;7.90;;;;;;;7.39;100.00;98981.06;5103996;27;20570;-77
2023/10/19 09:05:40;;;;;;;10.52;9.30;;;;;;;7.26;100.00;98977.88;5102346;27;20352;-78
2023/10/19 09:08:38;;;;;;;12.60;9.60;;;;;;;7.21;100.00;98971.94;5103476;27;20079;-81
2023/10/19 09:11:25;;;;;;;10.75;8.18;;;;;;;7.25;100.00;98968.41;5098953;27;20142;-75
2023/10/19 09:14:17;;;;;;;11.75;8.65;;;;;;;7.29;100.00;98973.47;5111433;27;20048;-75
2023/10/19 09:17:04;;;;;;;10.65;8.57;;;;;;;7.38;100.00;98972.41;5103372;27;20631;-76
2023/10/19 09:19:53;;;;;;;12.32;8.32;;;;;;;7.41;100.00;98977.53;5117089;27;20108;-76
2023/10/19 09:22:44;;;;;;;10.88;9.20;;;;;;;7.53;100.00;98973.78;5104753;27;20058;-76
2023/10/19 09:25:31;;;;;;;14.00;9.45;;;;;;;7.54;100.00;98961.66;5099372;27;20259;-78
2023/10/19 09:28:18;;;;;;;13.32;9.65;;;;;;;7.64;100.00;98970.09;5102648;27;20046;-77
2023/10/19 09:31:06;;;;;;;11.85;9.23;;;;;;;7.66;100.00;98960.50;5100448;27;20073;-76
2023/10/19 09:33:53;;;;;;;11.85;9.30;;;;;;;7.75;100.00;98953.28;5098051;27;20047;-78
2023/10/19 09:36:43;;;;;;;13.75;9.68;;;;;;;7.95;100.00;98958.03;5113387;27;20228;-78
2023/10/19 09:39:35;;;;;;;12.57;8.98;;;;;;;8.03;100.00;98954.34;5095351;27;20084;-77
2023/10/19 09:42:24;;;;;;;10.20;8.77;;;;;;;8.13;100.00;98950.59;5097703;27;20048;-76
2023/10/19 09:45:11;;;;;;;14.25;9.52;;;;;;;8.26;100.00;98941.56;5099241;27;20666;-78
2023/10/19 09:48:02;;;;;;;13.50;10.55;;;;;;;8.40;100.00;98938.59;5093893;27;20047;-77
2023/10/19 09:50:55;;;;;;;14.80;9.85;;;;;;;8.42;100.00;98939.41;5093290;27;20473;-81
2023/10/19 09:53:48;;;;;;;12.00;9.32;;;;;;;8.45;100.00;98943.69;5096900;27;20106;-77
2023/10/19 09:56:44;;;;;;;9.70;8.40;;;;;;;8.37;100.00;98953.44;5113354;27;20054;-80
2023/10/19 09:59:38;;;;;;;11.45;9.60;;;;;;;8.36;100.00;98949.16;5099553;27;20555;-80
2023/10/19 10:02:25;;;;;;;11.35;8.38;;;;;;;8.38;100.00;98945.59;5098959;27;20035;-77
2023/10/19 10:05:43;;;;;;;10.25;9.00;;;;;;;8.43;100.00;98942.84;5099167;27;20039;-79
2023/10/19 10:08:34;;;;;;;12.18;9.07;;;;;;;8.46;100.00;98945.44;5114900;27;20119;-75
2023/10/19 10:11:24;;;;;;;12.23;9.13;;;;;;;8.49;100.00;98932.28;5118137;27;20055;-75
2023/10/19 10:14:28;;;;;;;12.30;9.35;;;;;;;8.51;100.00;98943.53;5096414;27;20082;-78
2023/10/19 10:17:19;;;;;;;12.48;9.55;;;;;;;8.50;100.00;98947.06;5101748;27;20092;-77
2023/10/19 10:20:17;;;;;;;11.00;9.32;;;;;;;8.42;100.00;98942.00;5105905;27;20045;-78
2023/10/19 10:23:24;;;;;;;11.80;9.70;;;;;;;8.54;100.00;98925.19;5117860;27;20153;-76
2023/10/19 10:26:16;;;;;;;14.98;10.38;;;;;;;8.54;100.00;98925.19;5100917;27;20070;-75
2023/10/19 10:29:13;;;;;;;10.85;9.43;;;;;;;8.52;100.00;98928.75;5102491;27;20047;-77
2023/10/19 10:32:00;;;;;;;11.88;9.90;;;;;;;8.53;100.00;98928.69;5116610;27;20067;-76
2023/10/19 10:34:49;;;;;;;14.48;10.00;;;;;;;8.55;100.00;98926.91;5113434;27;20048;-77
2023/10/19 10:37:39;;;;;;;11.80;9.30;;;;;;;8.46;100.00;98927.19;5101969;27;20054;-78
2023/10/19 10:40:26;;;;;;;11.27;8.75;;;;;;;8.52;100.00;98926.97;5102875;27;20039;-79
2023/10/19 10:43:13;;;;;;;14.13;10.15;;;;;;;8.66;100.00;98915.31;5104994;27;20123;-76
2023/10/19 10:46:07;;;;;;;13.45;9.35;;;;;;;8.62;100.00;98917.16;5101383;27;20055;-79
2023/10/19 10:48:54;;;;;;;12.77;9.17;;;;;;;8.56;100.00;98915.56;5103398;27;20047;-77
2023/10/19 10:51:41;;;;;;;13.95;10.32;;;;;;;8.64;100.00;98909.28;5121254;27;20467;-78
2023/10/19 10:54:28;;;;;;;12.90;9.93;;;;;;;8.67;100.00;98910.06;5104319;27;20057;-78
2023/10/19 10:57:16;;;;;;;12.50;9.10;;;;;;;8.66;100.00;98904.88;5100070;27;20169;-78
2023/10/19 11:00:15;;;;;;;11.88;9.38;;;;;;;8.66;100.00;98899.66;5102991;27;20155;-78
2023/10/19 11:03:08;;;;;;;11.48;9.13;;;;;;;8.69;100.00;98897.81;5125791;27;20050;-75
2023/10/19 11:05:55;;;;;;;9.90;8.90;;;;;;;8.73;100.00;98898.56;5102508;27;20047;-77
2023/10/19 11:08:42;;;;;;;13.90;9.77;;;;;;;8.71;100.00;98889.97;5102828;27;20039;-77
2023/10/19 11:11:29;;;;;;;10.65;8.52;;;;;;;8.74;100.00;98893.31;5102642;27;20562;-77
2023/10/19 11:14:18;;;;;;;10.38;9.15;;;;;;;8.80;100.00;98894.03;5101781;27;20066;-78
2023/10/19 11:17:15;;;;;;;12.77;8.73;;;;;;;8.90;100.00;98896.34;5114256;27;20043;-76
2023/10/19 11:20:04;;;;;;;12.73;9.25;;;;;;;9.01;100.00;98896.00;5094638;27;20047;-78
2023/10/19 11:22:55;;;;;;;12.80;9.70;;;;;;;9.14;100.00;98900.81;5098656;27;20043;-78
2023/10/19 11:25:43;;;;;;;11.15;9.30;;;;;;;9.02;100.00;98902.06;5099904;27;20053;-78
2023/10/19 11:28:31;;;;;;;12.07;9.07;;;;;;;8.88;100.00;98900.72;5113951;27;20054;-78
2023/10/19 11:31:21;;;;;;;10.95;8.43;;;;;;;8.90;100.00;98896.34;5110451;27;20403;-79
2023/10/19 11:34:09;;;;;;;10.45;9.30;;;;;;;8.81;100.00;98891.38;5095298;27;20538;-78
2023/10/19 11:37:00;;;;;;;10.90;8.85;;;;;;;8.94;100.00;98897.06;5096673;27;20073;-77
2023/10/19 11:39:48;;;;;;;12.23;8.43;;;;;;;8.89;100.00;98893.75;5094899;27;20043;-75
2023/10/19 11:42:34;;;;;;;10.10;9.07;;;;;;;8.88;100.00;98894.66;5098001;27;20058;-80
2023/10/19 11:45:21;;;;;;;12.30;8.82;;;;;;;8.89;100.00;98891.13;5094755;27;20641;-78
2023/10/19 11:48:11;;;;;;;11.95;8.75;;;;;;;8.85;100.00;98882.56;5111850;27;20145;-79
2023/10/19 11:50:58;;;;;;;12.82;9.05;;;;;;;8.90;100.00;98885.03;5095484;27;20054;-78
2023/10/19 11:53:45;;;;;;;14.52;9.43;;;;;;;8.92;100.00;98880.63;5097797;27;20043;-79
2023/10/19 11:56:35;;;;;;;10.80;8.48;;;;;;;8.94;100.00;98903.16;5096557;27;20070;-80
2023/10/19 11:59:22;;;;;;;9.95;8.60;;;;;;;8.92;100.00;98897.13;5096770;28;20203;-77
2023/10/19 12:02:11;;;;;;;11.30;8.30;;;;;;;9.03;100.00;98895.94;5094706;27;20172;-80
2023/10/19 12:04:58;;;;;;;9.90;8.10;;;;;;;9.05;100.00;98896.75;5100589;27;20158;-76
2023/10/19 12:07:45;;;;;;;11.43;9.48;;;;;;;9.10;100.00;98890.47;5096864;27;20051;-79
2023/10/19 12:10:36;;;;;;;12.20;9.18;;;;;;;9.14;100.00;98885.16;5111995;27;20204;-77
2023/10/19 12:13:24;;;;;;;12.35;8.80;;;;;;;9.20;100.00;98882.34;5098594;27;20089;-77
2023/10/19 12:16:12;;;;;;;11.93;9.05;;;;;;;9.13;100.00;98893.91;5113881;27;20517;-77
2023/10/19 12:18:59;;;;;;;9.68;8.30;;;;;;;9.09;100.00;98887.94;5098666;27;20040;-76
2023/10/19 12:21:46;;;;;;;14.73;9.27;;;;;;;9.00;100.00;98891.66;5112783;27;20130;-76
2023/10/19 12:24:36;;;;;;;14.05;10.32;;;;;;;9.00;100.00;98885.59;5098706;27;20047;-76
2023/10/19 12:27:24;;;;;;;13.48;9.18;;;;;;;9.10;100.00;98882.66;5117318;27;20666;-80
2023/10/19 12:30:19;;;;;;;14.57;9.10;;;;;;;9.21;100.00;98882.31;5114628;27;20039;-78
2023/10/19 12:33:11;;;;;;;14.43;10.23;;;;;;;9.32;100.00;98874.16;5101348;27;20051;-78
2023/10/19 12:35:58;;;;;;;16.17;9.90;;;;;;;9.20;100.00;98867.53;5106658;27;20720;-79
2023/10/19 12:38:45;;;;;;;13.15;9.55;;;;;;;9.30;100.00;98870.72;5104652;27;20058;-80
2023/10/19 12:41:32;;;;;;;12.10;9.13;;;;;;;9.37;100.00;98867.03;5099976;27;20069;-77
2023/10/19 12:44:20;;;;;;;14.25;8.95;;;;;;;9.49;100.00;98868.38;5102604;27;20605;-81
2023/10/19 12:47:09;;;;;;;12.55;8.70;;;;;;;9.52;100.00;98875.25;5101323;27;20043;-78
2023/10/19 12:49:57;;;;;;;11.90;9.40;;;;;;;9.66;100.00;98870.41;5097355;27;20041;-78
2023/10/19 12:52:45;;;;;;;11.20;9.55;;;;;;;9.45;100.00;98877.19;5115604;27;20040;-78
2023/10/19 12:55:32;;;;;;;13.05;10.40;;;;;;;9.19;100.00;98870.19;5128692;27;20054;-75
2023/10/19 12:58:19;;;;;;;19.35;11.20;;;;;;;9.04;100.00;98871.56;5104779;27;20059;-79
2023/10/19 13:01:06;;;;;;;14.93;10.20;;;;;;;9.12;100.00;98873.94;5101877;27;20043;-77